sensor_id;sensor_type;location;lat;lon;timestamp;pressure;altitude;pressure_sealevel;temperature;humidity
11114;BME280;5610;52.154;9.198;2023-02-28T00:02:12;102241.22;;;2.33;100.00
11114;BME280;5610;52.154;9.198;2023-02-28T00:04:57;102235.94;;;2.30;100.00
11114;BME280;5610;52.154;9.198;2023-02-28T00:07:45;102249.13;;;2.23;100.00
11114;BME280;5610;52.154;9.198;2023-02-28T00:10:31;102238.63;;;2.19;100.00
11114;BME280;5610;52.154;9.198;2023-02-28T00:13:17;102248.25;;;2.16;100.00
11114;BME280;5610;52.154;9.198;2023-02-28T00:16:05;102237.72;;;2.17;100.00
11114;BME280;5610;52.154;9.198;2023-02-28T00:18:52;102236.84;;;2.15;100.00
11114;BME280;5610;52.154;9.198;2023-02-28T00:21:37;102242.13;;;2.08;100.00
11114;BME280;5610;52.154;9.198;2023-02-28T00:24:24;102243.88;;;2.09;100.00
11114;BME280;5610;52.154;9.198;2023-02-28T00:27:09;102242.13;;;2.12;100.00
11114;BME280;5610;52.154;9.198;2023-02-28T00:29:56;102239.50;;;2.20;100.00
11114;BME280;5610;52.154;9.198;2023-02-28T00:32:41;102243.84;;;2.24;100.00
11114;BME280;5610;52.154;9.198;2023-02-28T00:35:27;102247.38;;;2.28;100.00
11114;BME280;5610;52.154;9.198;2023-02-28T00:38:12;102235.97;;;2.15;100.00
11114;BME280;5610;52.154;9.198;2023-02-28T00:40:57;102246.47;;;2.23;100.00
11114;BME280;5610;52.154;9.198;2023-02-28T00:43:48;102242.09;;;2.31;100.00
11114;BME280;5610;52.154;9.198;2023-02-28T00:46:35;102249.09;;;2.35;100.00
11114;BME280;5610;52.154;9.198;2023-02-28T00:49:20;102237.69;;;2.37;100.00
11114;BME280;5610;52.154;9.198;2023-02-28T00:52:05;102234.19;;;2.31;100.00
11114;BME280;5610;52.154;9.198;2023-02-28T00:54:51;102238.56;;;2.30;100.00
11114;BME280;5610;52.154;9.198;2023-02-28T00:57:36;102245.63;;;2.27;100.00
11114;BME280;5610;52.154;9.198;2023-02-28T01:00:22;102244.75;;;2.20;100.00
11114;BME280;5610;52.154;9.198;2023-02-28T01:03:09;102236.88;;;2.06;100.00
11114;BME280;5610;52.154;9.198;2023-02-28T01:05:54;102235.13;;;1.93;100.00
11114;BME280;5610;52.154;9.198;2023-02-28T01:08:39;102242.16;;;1.83;100.00
11114;BME280;5610;52.154;9.198;2023-02-28T01:11:25;102242.16;;;1.70;100.00
11114;BME280;5610;52.154;9.198;2023-02-28T01:14:12;102242.09;;;1.51;100.00
11114;BME280;5610;52.154;9.198;2023-02-28T01:16:57;102246.47;;;1.40;100.00
11114;BME280;5610;52.154;9.198;2023-02-28T01:19:44;102246.44;;;1.29;100.00
11114;BME280;5610;52.154;9.198;2023-02-28T01:22:29;102245.56;;;1.24;100.00
11114;BME280;5610;52.154;9.198;2023-02-28T01:25:15;102244.69;;;1.21;100.00
11114;BME280;5610;52.154;9.198;2023-02-28T01:28:00;102242.06;;;1.21;100.00
11114;BME280;5610;52.154;9.198;2023-02-28T01:30:48;102243.78;;;1.19;100.00
11114;BME280;5610;52.154;9.198;2023-02-28T01:33:33;102251.66;;;1.16;100.00
11114;BME280;5610;52.154;9.198;2023-02-28T01:36:22;102244.63;;;1.10;100.00
11114;BME280;5610;52.154;9.198;2023-02-28T01:39:07;102255.13;;;1.04;100.00
11114;BME280;5610;52.154;9.198;2023-02-28T01:41:52;102247.22;;;0.96;100.00
11114;BME280;5610;52.154;9.198;2023-02-28T01:44:58;102241.94;;;0.90;100.00
11114;BME280;5610;52.154;9.198;2023-02-28T01:47:46;102245.41;;;0.85;100.00
11114;BME280;5610;52.154;9.198;2023-02-28T01:50:36;102246.28;;;0.79;100.00
11114;BME280;5610;52.154;9.198;2023-02-28T01:53:32;102240.13;;;0.72;100.00
11114;BME280;5610;52.154;9.198;2023-02-28T01:56:21;102239.28;;;0.79;100.00
11114;BME280;5610;52.154;9.198;2023-02-28T01:59:08;102244.56;;;0.89;100.00
11114;BME280;5610;52.154;9.198;2023-02-28T02:01:54;102239.34;;;0.92;100.00
11114;BME280;5610;52.154;9.198;2023-02-28T02:04:44;102241.97;;;0.92;100.00
11114;BME280;5610;52.154;9.198;2023-02-28T02:07:35;102244.56;;;0.86;100.00
11114;BME280;5610;52.154;9.198;2023-02-28T02:10:29;102244.50;;;0.73;100.00
11114;BME280;5610;52.154;9.198;2023-02-28T02:13:25;102247.09;;;0.67;100.00
11114;BME280;5610;52.154;9.198;2023-02-28T02:16:25;102247.06;;;0.58;100.00
11114;BME280;5610;52.154;9.198;2023-02-28T02:19:32;102238.28;;;0.51;100.00
11114;BME280;5610;52.154;9.198;2023-02-28T02:22:52;102243.44;;;0.42;100.00
11114;BME280;5610;52.154;9.198;2023-02-28T02:25:49;102242.56;;;0.36;100.00
11114;BME280;5610;52.154;9.198;2023-02-28T02:28:51;102238.16;;;0.29;100.00
11114;BME280;5610;52.154;9.198;2023-02-28T02:31:54;102241.59;;;0.23;100.00
11114;BME280;5610;52.154;9.198;2023-02-28T02:34:55;102232.81;;;0.16;100.00
11114;BME280;5610;52.154;9.198;2023-02-28T02:37:49;102236.31;;;0.17;100.00
11114;BME280;5610;52.154;9.198;2023-02-28T02:40:39;102241.56;;;0.15;100.00
11114;BME280;5610;52.154;9.198;2023-02-28T02:43:31;102237.19;;;0.16;100.00
11114;BME280;5610;52.154;9.198;2023-02-28T02:46:22;102238.94;;;0.17;100.00
11114;BME280;5610;52.154;9.198;2023-02-28T02:49:10;102230.16;;;0.10;100.00
11114;BME280;5610;52.154;9.198;2023-02-28T02:52:02;102241.50;;;0.08;100.00
11114;BME280;5610;52.154;9.198;2023-02-28T02:54:52;102244.03;;;-0.03;100.00
11114;BME280;5610;52.154;9.198;2023-02-28T02:57:45;102243.97;;;-0.08;100.00
11114;BME280;5610;52.154;9.198;2023-02-28T03:00:35;102245.72;;;-0.11;100.00
11114;BME280;5610;52.154;9.198;2023-02-28T03:03:23;102243.91;;;-0.18;100.00
11114;BME280;5610;52.154;9.198;2023-02-28T03:06:14;102243.84;;;-0.24;100.00
11114;BME280;5610;52.154;9.198;2023-02-28T03:09:01;102243.72;;;-0.37;100.00
11114;BME280;5610;52.154;9.198;2023-02-28T03:11:47;102246.28;;;-0.44;100.00
11114;BME280;5610;52.154;9.198;2023-02-28T03:14:43;102243.66;;;-0.46;100.00
11114;BME280;5610;52.154;9.198;2023-02-28T03:17:46;102243.66;;;-0.49;100.00
11114;BME280;5610;52.154;9.198;2023-02-28T03:20:38;102245.34;;;-0.51;100.00
11114;BME280;5610;52.154;9.198;2023-02-28T03:23:33;102244.47;;;-0.51;100.00
11114;BME280;5610;52.154;9.198;2023-02-28T03:26:27;102242.75;;;-0.49;100.00
11114;BME280;5610;52.154;9.198;2023-02-28T03:29:18;102232.25;;;-0.51;100.00
11114;BME280;5610;52.154;9.198;2023-02-28T03:32:12;102237.50;;;-0.51;100.00
11114;BME280;5610;52.154;9.198;2023-02-28T03:35:06;102234.88;;;-0.51;100.00
11114;BME280;5610;52.154;9.198;2023-02-28T03:37:58;102244.53;;;-0.48;100.00
11114;BME280;5610;52.154;9.198;2023-02-28T03:40:48;102232.25;;;-0.54;100.00
11114;BME280;5610;52.154;9.198;2023-02-28T03:43:40;102236.56;;;-0.58;100.00
11114;BME280;5610;52.154;9.198;2023-02-28T03:46:30;102236.53;;;-0.59;100.00
11114;BME280;5610;52.154;9.198;2023-02-28T03:49:18;102227.75;;;-0.64;100.00
11114;BME280;5610;52.154;9.198;2023-02-28T03:52:06;102233.00;;;-0.64;100.00
11114;BME280;5610;52.154;9.198;2023-02-28T03:54:56;102231.25;;;-0.65;100.00
11114;BME280;5610;52.154;9.198;2023-02-28T03:57:57;102233.84;;;-0.67;100.00
11114;BME280;5610;52.154;9.198;2023-02-28T04:00:48;102240.84;;;-0.67;100.00
11114;BME280;5610;52.154;9.198;2023-02-28T04:03:35;102242.56;;;-0.68;100.00
11114;BME280;5610;52.154;9.198;2023-02-28T04:06:22;102246.06;;;-0.70;100.00
11114;BME280;5610;52.154;9.198;2023-02-28T04:09:10;102237.28;;;-0.72;100.00
11114;BME280;5610;52.154;9.198;2023-02-28T04:11:55;102234.66;;;-0.74;100.00
11114;BME280;5610;52.154;9.198;2023-02-28T04:14:41;102237.22;;;-0.78;100.00
11114;BME280;5610;52.154;9.198;2023-02-28T04:17:27;102235.44;;;-0.81;100.00
11114;BME280;5610;52.154;9.198;2023-02-28T04:20:13;102240.66;;;-0.84;100.00
11114;BME280;5610;52.154;9.198;2023-02-28T04:22:58;102237.19;;;-0.85;100.00
11114;BME280;5610;52.154;9.198;2023-02-28T04:25:43;102239.72;;;-0.89;100.00
11114;BME280;5610;52.154;9.198;2023-02-28T04:28:29;102242.34;;;-0.88;100.00
11114;BME280;5610;52.154;9.198;2023-02-28T04:31:14;102239.69;;;-0.92;100.00
11114;BME280;5610;52.154;9.198;2023-02-28T04:34:02;102242.28;;;-0.92;100.00
11114;BME280;5610;52.154;9.198;2023-02-28T04:36:47;102246.69;;;-0.91;100.00
11114;BME280;5610;52.154;9.198;2023-02-28T04:39:36;102237.94;;;-0.93;100.00
11114;BME280;5610;52.154;9.198;2023-02-28T04:42:21;102237.97;;;-0.90;100.00
11114;BME280;5610;52.154;9.198;2023-02-28T04:45:08;102239.66;;;-0.94;100.00
11114;BME280;5610;52.154;9.198;2023-02-28T04:47:54;102238.78;;;-0.96;100.00
11114;BME280;5610;52.154;9.198;2023-02-28T04:50:41;102240.50;;;-0.98;100.00
11114;BME280;5610;52.154;9.198;2023-02-28T04:53:27;102234.34;;;-1.03;100.00
11114;BME280;5610;52.154;9.198;2023-02-28T04:56:14;102248.22;;;-1.07;100.00
11114;BME280;5610;52.154;9.198;2023-02-28T04:59:00;102242.09;;;-1.12;100.00
11114;BME280;5610;52.154;9.198;2023-02-28T05:01:46;102249.00;;;-1.17;100.00
11114;BME280;5610;52.154;9.198;2023-02-28T05:04:33;102254.13;;;-1.25;100.00
11114;BME280;5610;52.154;9.198;2023-02-28T05:07:20;102247.06;;;-1.30;100.00
11114;BME280;5610;52.154;9.198;2023-02-28T05:10:06;102239.22;;;-1.32;100.00
11114;BME280;5610;52.154;9.198;2023-02-28T05:12:51;102251.44;;;-1.29;100.00
11114;BME280;5610;52.154;9.198;2023-02-28T05:15:36;102253.97;;;-1.35;100.00
11114;BME280;5610;52.154;9.198;2023-02-28T05:18:22;102243.41;;;-1.43;100.00
11114;BME280;5610;52.154;9.198;2023-02-28T05:21:23;102253.84;;;-1.48;100.00
11114;BME280;5610;52.154;9.198;2023-02-28T05:24:10;102257.25;;;-1.52;100.00
11114;BME280;5610;52.154;9.198;2023-02-28T05:26:56;102262.38;;;-1.59;100.00
11114;BME280;5610;52.154;9.198;2023-02-28T05:29:42;102261.41;;;-1.64;100.00
11114;BME280;5610;52.154;9.198;2023-02-28T05:32:27;102255.28;;;-1.68;100.00
11114;BME280;5610;52.154;9.198;2023-02-28T05:35:12;102271.81;;;-1.69;100.00
11114;BME280;5610;52.154;9.198;2023-02-28T05:37:58;102270.91;;;-1.70;100.00
11114;BME280;5610;52.154;9.198;2023-02-28T05:40:44;102274.44;;;-1.69;100.00
11114;BME280;5610;52.154;9.198;2023-02-28T05:43:29;102271.00;;;-1.63;100.00
11114;BME280;5610;52.154;9.198;2023-02-28T05:46:15;102276.28;;;-1.62;100.00
11114;BME280;5610;52.154;9.198;2023-02-28T05:49:01;102271.97;;;-1.58;100.00
11114;BME280;5610;52.154;9.198;2023-02-28T05:51:46;102277.19;;;-1.58;100.00
11114;BME280;5610;52.154;9.198;2023-02-28T05:54:32;102281.53;;;-1.62;100.00
11114;BME280;5610;52.154;9.198;2023-02-28T05:57:18;102282.31;;;-1.64;100.00
11114;BME280;5610;52.154;9.198;2023-02-28T06:00:05;102278.81;;;-1.67;100.00
11114;BME280;5610;52.154;9.198;2023-02-28T06:02:56;102278.75;;;-1.71;100.00
11114;BME280;5610;52.154;9.198;2023-02-28T06:05:43;102283.94;;;-1.74;100.00
11114;BME280;5610;52.154;9.198;2023-02-28T06:08:29;102284.75;;;-1.77;100.00
11114;BME280;5610;52.154;9.198;2023-02-28T06:11:14;102290.84;;;-1.76;100.00
11114;BME280;5610;52.154;9.198;2023-02-28T06:14:02;102298.75;;;-1.73;100.00
11114;BME280;5610;52.154;9.198;2023-02-28T06:16:47;102292.63;;;-1.75;100.00
11114;BME280;5610;52.154;9.198;2023-02-28T06:19:32;102296.13;;;-1.75;100.00
11114;BME280;5610;52.154;9.198;2023-02-28T06:22:17;102300.53;;;-1.71;100.00
11114;BME280;5610;52.154;9.198;2023-02-28T06:25:04;102304.88;;;-1.71;100.00
11114;BME280;5610;52.154;9.198;2023-02-28T06:27:49;102302.34;;;-1.67;100.00
11114;BME280;5610;52.154;9.198;2023-02-28T06:30:36;102292.91;;;-1.57;100.00
11114;BME280;5610;52.154;9.198;2023-02-28T06:33:21;102294.81;;;-1.47;100.00
11114;BME280;5610;52.154;9.198;2023-02-28T06:36:08;102301.84;;;-1.41;100.00
11114;BME280;5610;52.154;9.198;2023-02-28T06:38:53;102302.75;;;-1.38;100.00
11114;BME280;5610;52.154;9.198;2023-02-28T06:41:40;102307.97;;;-1.41;100.00
11114;BME280;5610;52.154;9.198;2023-02-28T06:44:25;102313.19;;;-1.41;100.00
11114;BME280;5610;52.154;9.198;2023-02-28T06:47:12;102325.44;;;-1.36;100.00
11114;BME280;5610;52.154;9.198;2023-02-28T06:49:57;102329.09;;;-1.27;100.00
11114;BME280;5610;52.154;9.198;2023-02-28T06:52:45;102321.34;;;-1.19;100.00
11114;BME280;5610;52.154;9.198;2023-02-28T06:55:31;102323.19;;;-1.11;100.00
11114;BME280;5610;52.154;9.198;2023-02-28T06:58:16;102323.28;;;-1.03;100.00
11114;BME280;5610;52.154;9.198;2023-02-28T07:01:03;102321.66;;;-0.95;100.00
11114;BME280;5610;52.154;9.198;2023-02-28T07:03:50;102324.34;;;-0.87;100.00
11114;BME280;5610;52.154;9.198;2023-02-28T07:06:36;102325.38;;;-0.77;100.00
11114;BME280;5610;52.154;9.198;2023-02-28T07:09:21;102337.69;;;-0.69;100.00
11114;BME280;5610;52.154;9.198;2023-02-28T07:12:07;102337.78;;;-0.60;100.00
11114;BME280;5610;52.154;9.198;2023-02-28T07:14:52;102327.38;;;-0.55;100.00
11114;BME280;5610;52.154;9.198;2023-02-28T07:17:38;102337.94;;;-0.46;100.00
11114;BME280;5610;52.154;9.198;2023-02-28T07:20:25;102332.78;;;-0.38;100.00
11114;BME280;5610;52.154;9.198;2023-02-28T07:23:10;102337.28;;;-0.26;100.00
11114;BME280;5610;52.154;9.198;2023-02-28T07:25:55;102334.72;;;-0.20;100.00
11114;BME280;5610;52.154;9.198;2023-02-28T07:28:41;102329.56;;;-0.11;100.00
11114;BME280;5610;52.154;9.198;2023-02-28T07:31:27;102334.00;;;-0.01;100.00
11114;BME280;5610;52.154;9.198;2023-02-28T07:34:12;102341.97;;;0.08;100.00
11114;BME280;5610;52.154;9.198;2023-02-28T07:36:59;102337.69;;;0.19;100.00
11114;BME280;5610;52.154;9.198;2023-02-28T07:39:47;102339.53;;;0.33;100.00
11114;BME280;5610;52.154;9.198;2023-02-28T07:42:33;102333.53;;;0.43;100.00
11114;BME280;5610;52.154;9.198;2023-02-28T07:45:21;102330.06;;;0.51;100.00
11114;BME280;5610;52.154;9.198;2023-02-28T07:48:06;102319.63;;;0.62;100.00
11114;BME280;5610;52.154;9.198;2023-02-28T07:50:54;102319.72;;;0.74;100.00
11114;BME280;5610;52.154;9.198;2023-02-28T07:53:41;102312.75;;;0.84;100.00
11114;BME280;5610;52.154;9.198;2023-02-28T07:56:26;102315.47;;;0.95;100.00
11114;BME280;5610;52.154;9.198;2023-02-28T07:59:11;102312.88;;;1.05;100.00
11114;BME280;5610;52.154;9.198;2023-02-28T08:01:57;102317.31;;;1.14;100.00
11114;BME280;5610;52.154;9.198;2023-02-28T08:04:43;102319.06;;;1.26;100.00
11114;BME280;5610;52.154;9.198;2023-02-28T08:07:29;102318.25;;;1.37;100.00
11114;BME280;5610;52.154;9.198;2023-02-28T08:10:16;102331.41;;;1.47;100.00
11114;BME280;5610;52.154;9.198;2023-02-28T08:13:01;102330.56;;;1.57;100.00
11114;BME280;5610;52.154;9.198;2023-02-28T08:15:46;102334.09;;;1.74;100.00
11114;BME280;5610;52.154;9.198;2023-02-28T08:18:32;102329.72;;;1.82;100.00
11114;BME280;5610;52.154;9.198;2023-02-28T08:21:17;102325.38;;;2.00;100.00
11114;BME280;5610;52.154;9.198;2023-02-28T08:24:03;102327.13;;;2.11;100.00
11114;BME280;5610;52.154;9.198;2023-02-28T08:26:49;102327.16;;;2.28;100.00
11114;BME280;5610;52.154;9.198;2023-02-28T08:29:36;102328.91;;;2.22;100.00
11114;BME280;5610;52.154;9.198;2023-02-28T08:32:21;102331.53;;;2.18;100.00
11114;BME280;5610;52.154;9.198;2023-02-28T08:35:07;102323.66;;;2.20;100.00
11114;BME280;5610;52.154;9.198;2023-02-28T08:37:54;102335.91;;;2.38;100.00
11114;BME280;5610;52.154;9.198;2023-02-28T08:40:39;102327.13;;;2.62;100.00
11114;BME280;5610;52.154;9.198;2023-02-28T08:43:26;102330.53;;;2.97;100.00
11114;BME280;5610;52.154;9.198;2023-02-28T08:46:12;102325.09;;;3.37;100.00
11114;BME280;5610;52.154;9.198;2023-02-28T08:48:58;102324.16;;;3.49;100.00
11114;BME280;5610;52.154;9.198;2023-02-28T08:51:45;102331.88;;;3.84;100.00
11114;BME280;5610;52.154;9.198;2023-02-28T08:54:31;102327.31;;;4.09;100.00
11114;BME280;5610;52.154;9.198;2023-02-28T08:57:17;102319.38;;;4.06;98.42
11114;BME280;5610;52.154;9.198;2023-02-28T09:00:04;102327.34;;;4.01;99.39
11114;BME280;5610;52.154;9.198;2023-02-28T09:02:50;102313.97;;;4.24;97.38
11114;BME280;5610;52.154;9.198;2023-02-28T09:05:35;102327.88;;;4.41;93.16
11114;BME280;5610;52.154;9.198;2023-02-28T09:08:20;102317.75;;;4.85;91.21
11114;BME280;5610;52.154;9.198;2023-02-28T09:11:06;102328.97;;;5.05;84.70
11114;BME280;5610;52.154;9.198;2023-02-28T09:13:51;102329.50;;;5.35;68.79
11114;BME280;5610;52.154;9.198;2023-02-28T09:16:38;102326.47;;;5.62;64.85
11114;BME280;5610;52.154;9.198;2023-02-28T09:19:23;102328.00;;;5.80;64.16
11114;BME280;5610;52.154;9.198;2023-02-28T09:22:09;102330.94;;;6.19;62.40
11114;BME280;5610;52.154;9.198;2023-02-28T09:24:54;102325.47;;;6.29;60.51
11114;BME280;5610;52.154;9.198;2023-02-28T09:27:40;102329.03;;;6.76;62.15
11114;BME280;5610;52.154;9.198;2023-02-28T09:30:25;102334.00;;;6.95;60.03
11114;BME280;5610;52.154;9.198;2023-02-28T09:33:12;102333.38;;;6.80;58.86
11114;BME280;5610;52.154;9.198;2023-02-28T09:35:59;102330.44;;;7.39;60.70
11114;BME280;5610;52.154;9.198;2023-02-28T09:38:45;102339.25;;;7.80;60.52
11114;BME280;5610;52.154;9.198;2023-02-28T09:41:37;102337.88;;;8.01;56.58
11114;BME280;5610;52.154;9.198;2023-02-28T09:44:35;102333.38;;;8.41;56.98
11114;BME280;5610;52.154;9.198;2023-02-28T09:47:26;102333.22;;;8.80;56.46
11114;BME280;5610;52.154;9.198;2023-02-28T09:50:18;102334.25;;;9.07;55.83
11114;BME280;5610;52.154;9.198;2023-02-28T09:53:16;102331.38;;;9.44;54.28
11114;BME280;5610;52.154;9.198;2023-02-28T09:56:08;102336.03;;;9.67;53.21
11114;BME280;5610;52.154;9.198;2023-02-28T09:58:57;102337.59;;;10.30;53.75
11114;BME280;5610;52.154;9.198;2023-02-28T10:01:48;102328.63;;;10.33;51.15
11114;BME280;5610;52.154;9.198;2023-02-28T10:04:43;102318.13;;;10.80;52.17
11114;BME280;5610;52.154;9.198;2023-02-28T10:07:50;102325.75;;;11.37;50.68
11114;BME280;5610;52.154;9.198;2023-02-28T10:10:40;102331.28;;;12.01;48.88
11114;BME280;5610;52.154;9.198;2023-02-28T10:13:33;102327.69;;;12.45;46.91
11114;BME280;5610;52.154;9.198;2023-02-28T10:16:24;102314.63;;;13.37;47.34
11114;BME280;5610;52.154;9.198;2023-02-28T10:19:14;102319.78;;;13.42;44.07
11114;BME280;5610;52.154;9.198;2023-02-28T10:22:08;102321.13;;;13.88;43.99
11114;BME280;5610;52.154;9.198;2023-02-28T10:24:58;102315.22;;;15.04;40.46
11114;BME280;5610;52.154;9.198;2023-02-28T10:27:47;102301.13;;;17.16;37.80
11114;BME280;5610;52.154;9.198;2023-02-28T10:30:32;102299.47;;;20.60;34.32
11114;BME280;5610;52.154;9.198;2023-02-28T10:33:22;102299.63;;;22.46;30.67
11114;BME280;5610;52.154;9.198;2023-02-28T10:36:12;102301.53;;;24.37;28.04
11114;BME280;5610;52.154;9.198;2023-02-28T10:38:58;102296.34;;;26.02;27.21
11114;BME280;5610;52.154;9.198;2023-02-28T10:41:45;102286.19;;;27.68;25.25
11114;BME280;5610;52.154;9.198;2023-02-28T10:44:31;102285.50;;;26.46;25.35
11114;BME280;5610;52.154;9.198;2023-02-28T10:47:17;102294.75;;;23.33;28.33
11114;BME280;5610;52.154;9.198;2023-02-28T10:50:04;102282.25;;;23.61;28.49
11114;BME280;5610;52.154;9.198;2023-02-28T10:52:50;102289.38;;;25.90;26.26
11114;BME280;5610;52.154;9.198;2023-02-28T10:55:36;102277.41;;;28.64;24.35
11114;BME280;5610;52.154;9.198;2023-02-28T10:58:23;102280.06;;;30.14;22.35
11114;BME280;5610;52.154;9.198;2023-02-28T11:01:13;102272.75;;;31.11;21.97
11114;BME280;5610;52.154;9.198;2023-02-28T11:03:59;102271.41;;;32.31;21.38
11114;BME280;5610;52.154;9.198;2023-02-28T11:06:45;102273.06;;;31.31;21.28
11114;BME280;5610;52.154;9.198;2023-02-28T11:09:33;102267.56;;;29.02;22.73
11114;BME280;5610;52.154;9.198;2023-02-28T11:12:22;102269.16;;;30.21;21.68
11114;BME280;5610;52.154;9.198;2023-02-28T11:15:21;102260.06;;;30.58;21.79
11114;BME280;5610;52.154;9.198;2023-02-28T11:18:21;102257.03;;;31.56;20.64
11114;BME280;5610;52.154;9.198;2023-02-28T11:21:08;102256.97;;;31.20;20.76
11114;BME280;5610;52.154;9.198;2023-02-28T11:23:59;102255.81;;;31.59;20.77
11114;BME280;5610;52.154;9.198;2023-02-28T11:26:47;102253.03;;;31.23;20.18
11114;BME280;5610;52.154;9.198;2023-02-28T11:29:33;102252.84;;;30.57;21.16
11114;BME280;5610;52.154;9.198;2023-02-28T11:32:22;102252.41;;;27.09;22.48
11114;BME280;5610;52.154;9.198;2023-02-28T11:35:16;102259.06;;;22.12;26.51
11114;BME280;5610;52.154;9.198;2023-02-28T11:38:09;102257.19;;;17.98;31.06
11114;BME280;5610;52.154;9.198;2023-02-28T11:41:10;102262.84;;;14.28;35.56
11114;BME280;5610;52.154;9.198;2023-02-28T11:44:08;102266.44;;;12.79;38.58
11114;BME280;5610;52.154;9.198;2023-02-28T11:46:58;102265.75;;;11.69;40.47
11114;BME280;5610;52.154;9.198;2023-02-28T11:49:52;102263.72;;;10.84;42.15
11114;BME280;5610;52.154;9.198;2023-02-28T11:52:48;102259.50;;;10.53;42.24
11114;BME280;5610;52.154;9.198;2023-02-28T11:55:39;102256.81;;;10.28;42.19
11114;BME280;5610;52.154;9.198;2023-02-28T11:58:38;102265.59;;;10.32;42.86
11114;BME280;5610;52.154;9.198;2023-02-28T12:01:45;102257.13;;;9.93;42.85
11114;BME280;5610;52.154;9.198;2023-02-28T12:04:44;102256.38;;;10.15;43.80
11114;BME280;5610;52.154;9.198;2023-02-28T12:07:50;102257.63;;;9.77;43.79
11114;BME280;5610;52.154;9.198;2023-02-28T12:10:47;102252.84;;;10.15;43.67
11114;BME280;5610;52.154;9.198;2023-02-28T12:13:43;102246.66;;;10.39;44.64
11114;BME280;5610;52.154;9.198;2023-02-28T12:16:57;102238.69;;;11.78;41.78
11114;BME280;5610;52.154;9.198;2023-02-28T12:19:48;102222.66;;;19.30;33.19
11114;BME280;5610;52.154;9.198;2023-02-28T12:22:47;102217.13;;;25.84;25.95
11114;BME280;5610;52.154;9.198;2023-02-28T12:25:44;102221.38;;;30.22;22.33
11114;BME280;5610;52.154;9.198;2023-02-28T12:28:35;102209.28;;;31.70;20.67
11114;BME280;5610;52.154;9.198;2023-02-28T12:31:24;102210.00;;;33.13;19.90
11114;BME280;5610;52.154;9.198;2023-02-28T12:34:14;102193.66;;;34.25;19.41
11114;BME280;5610;52.154;9.198;2023-02-28T12:37:04;102194.84;;;35.78;18.00
11114;BME280;5610;52.154;9.198;2023-02-28T12:39:56;102184.66;;;36.91;16.88
11114;BME280;5610;52.154;9.198;2023-02-28T12:42:48;102186.81;;;34.67;18.28
11114;BME280;5610;52.154;9.198;2023-02-28T12:45:40;102190.03;;;34.31;18.48
11114;BME280;5610;52.154;9.198;2023-02-28T12:48:30;102174.03;;;34.66;18.49
11114;BME280;5610;52.154;9.198;2023-02-28T12:51:17;102172.13;;;34.60;18.59
11114;BME280;5610;52.154;9.198;2023-02-28T12:54:10;102165.41;;;35.77;17.75
11114;BME280;5610;52.154;9.198;2023-02-28T12:57:06;102168.19;;;36.71;17.77
11114;BME280;5610;52.154;9.198;2023-02-28T12:59:56;102167.25;;;35.90;17.61
11114;BME280;5610;52.154;9.198;2023-02-28T13:03:09;102161.78;;;37.67;17.40
11114;BME280;5610;52.154;9.198;2023-02-28T13:06:23;102154.56;;;37.18;17.21
11114;BME280;5610;52.154;9.198;2023-02-28T13:09:14;102167.44;;;37.60;16.70
11114;BME280;5610;52.154;9.198;2023-02-28T13:12:01;102155.63;;;37.65;17.02
11114;BME280;5610;52.154;9.198;2023-02-28T13:15:07;102150.94;;;32.72;20.08
11114;BME280;5610;52.154;9.198;2023-02-28T13:17:58;102153.72;;;28.82;22.27
11114;BME280;5610;52.154;9.198;2023-02-28T13:20:47;102150.88;;;24.64;25.13
11114;BME280;5610;52.154;9.198;2023-02-28T13:23:56;102153.69;;;22.79;27.62
11114;BME280;5610;52.154;9.198;2023-02-28T13:27:21;102145.59;;;24.90;26.45
11114;BME280;5610;52.154;9.198;2023-02-28T13:31:02;102145.16;;;25.58;25.79
11114;BME280;5610;52.154;9.198;2023-02-28T13:34:14;102132.88;;;25.08;25.63
11114;BME280;5610;52.154;9.198;2023-02-28T13:37:31;102129.50;;;31.05;21.74
11114;BME280;5610;52.154;9.198;2023-02-28T13:40:28;102133.31;;;34.74;18.78
11114;BME280;5610;52.154;9.198;2023-02-28T13:43:18;102129.41;;;36.21;17.87
11114;BME280;5610;52.154;9.198;2023-02-28T13:46:10;102138.63;;;36.40;17.39
11114;BME280;5610;52.154;9.198;2023-02-28T13:48:56;102119.91;;;36.90;17.48
11114;BME280;5610;52.154;9.198;2023-02-28T13:52:08;102115.47;;;36.64;17.67
11114;BME280;5610;52.154;9.198;2023-02-28T13:55:17;102113.78;;;37.30;17.54
11114;BME280;5610;52.154;9.198;2023-02-28T13:58:25;102113.50;;;37.61;16.90
11114;BME280;5610;52.154;9.198;2023-02-28T14:01:31;102109.41;;;36.55;17.01
11114;BME280;5610;52.154;9.198;2023-02-28T14:04:48;102112.72;;;35.77;16.89
11114;BME280;5610;52.154;9.198;2023-02-28T14:07:40;102110.72;;;34.83;17.33
11114;BME280;5610;52.154;9.198;2023-02-28T14:10:30;102106.72;;;35.81;17.68
11114;BME280;5610;52.154;9.198;2023-02-28T14:13:40;102100.91;;;36.32;17.49
11114;BME280;5610;52.154;9.198;2023-02-28T14:16:36;102098.78;;;35.59;17.70
11114;BME280;5610;52.154;9.198;2023-02-28T14:19:26;102105.91;;;35.48;17.67
11114;BME280;5610;52.154;9.198;2023-02-28T14:22:36;102091.38;;;36.46;17.58
11114;BME280;5610;52.154;9.198;2023-02-28T14:25:31;102088.06;;;36.13;17.21
11114;BME280;5610;52.154;9.198;2023-02-28T14:28:24;102084.94;;;36.64;17.09
11114;BME280;5610;52.154;9.198;2023-02-28T14:31:13;102090.44;;;35.91;17.19
11114;BME280;5610;52.154;9.198;2023-02-28T14:34:12;102095.25;;;36.20;17.01
11114;BME280;5610;52.154;9.198;2023-02-28T14:37:02;102085.81;;;35.21;17.53
11114;BME280;5610;52.154;9.198;2023-02-28T14:39:48;102081.13;;;34.12;18.20
11114;BME280;5610;52.154;9.198;2023-02-28T14:42:36;102087.72;;;34.83;17.79
11114;BME280;5610;52.154;9.198;2023-02-28T14:45:28;102077.75;;;33.97;18.15
11114;BME280;5610;52.154;9.198;2023-02-28T14:48:16;102091.75;;;33.96;17.88
11114;BME280;5610;52.154;9.198;2023-02-28T14:51:03;102098.09;;;30.84;19.90
11114;BME280;5610;52.154;9.198;2023-02-28T14:53:51;102084.69;;;31.54;19.52
11114;BME280;5610;52.154;9.198;2023-02-28T14:56:38;102089.03;;;31.05;19.79
11114;BME280;5610;52.154;9.198;2023-02-28T14:59:27;102096.78;;;30.51;19.97